Time;durP1;ratioP1;P1;durP2;ratioP2;P2;SDS_P1;SDS_P2;PMS_P1;PMS_P2;Temp;Humidity;BMP_temperature;BMP_pressure;BME280_temperature;BME280_humidity;BME280_pressure;Samples;Min_cycle;Max_cycle;Signal;HPM_P1;HPM_P2
2023/12/14 00:02:55;;;;;;;8.55;7.72;;;23.40;72.60;;;;;;6215563;28;84069;-64
2023/12/14 00:05:57;;;;;;;8.82;7.93;;;23.40;72.60;;;;;;6210717;28;82898;-64
2023/12/14 00:08:59;;;;;;;8.63;7.82;;;23.40;72.60;;;;;;6209380;28;83362;-64
2023/12/14 00:12:01;;;;;;;8.02;7.32;;;23.30;72.50;;;;;;6210186;28;84295;-64
2023/12/14 00:15:05;;;;;;;8.25;7.45;;;23.30;72.60;;;;;;6209346;28;82948;-64
2023/12/14 00:18:07;;;;;;;7.95;7.15;;;23.40;72.60;;;;;;6214271;28;85059;-64
2023/12/14 00:21:09;;;;;;;7.25;6.10;;;23.30;72.10;;;;;;6202447;28;83998;-64
2023/12/14 00:24:11;;;;;;;6.65;5.95;;;23.30;71.60;;;;;;6207437;28;84112;-64
2023/12/14 00:27:13;;;;;;;6.85;6.00;;;23.30;70.80;;;;;;6218503;28;84031;-64
2023/12/14 00:30:17;;;;;;;7.53;6.55;;;23.30;71.00;;;;;;6212932;28;84593;-64
2023/12/14 00:33:19;;;;;;;6.72;6.13;;;23.30;71.30;;;;;;6221249;28;85281;-64
2023/12/14 00:36:21;;;;;;;7.35;6.53;;;23.30;71.50;;;;;;6218465;28;84042;-64
2023/12/14 00:39:23;;;;;;;7.72;6.85;;;23.30;71.70;;;;;;6202427;28;83331;-64
2023/12/14 00:42:25;;;;;;;7.03;6.43;;;23.30;71.80;;;;;;6210924;28;84017;-64
2023/12/14 00:45:28;;;;;;;7.22;6.53;;;23.20;71.80;;;;;;6212116;28;83227;-64
2023/12/14 00:48:30;;;;;;;7.10;6.43;;;23.20;71.90;;;;;;6211925;28;83847;-64
2023/12/14 00:51:32;;;;;;;7.68;6.60;;;23.20;72.00;;;;;;6213812;28;84022;-64
2023/12/14 00:54:34;;;;;;;7.05;6.32;;;23.20;72.00;;;;;;6209133;28;83914;-64
2023/12/14 00:57:36;;;;;;;7.85;6.95;;;23.20;72.10;;;;;;6210583;28;84058;-64
2023/12/14 01:00:39;;;;;;;6.80;6.20;;;23.20;72.20;;;;;;6218550;28;84074;-64
2023/12/14 01:03:41;;;;;;;6.78;6.18;;;23.20;72.20;;;;;;6200929;28;83897;-64
2023/12/14 01:06:43;;;;;;;6.88;6.28;;;23.20;72.20;;;;;;6205296;28;83037;-64
2023/12/14 01:09:45;;;;;;;7.45;6.55;;;23.10;72.20;;;;;;6209787;28;83284;-64
2023/12/14 01:12:47;;;;;;;7.32;6.63;;;23.10;72.20;;;;;;6213584;28;84096;-64
2023/12/14 01:15:50;;;;;;;7.10;6.40;;;23.10;72.30;;;;;;6221281;28;84032;-64
2023/12/14 01:18:52;;;;;;;7.40;6.70;;;23.20;72.50;;;;;;6218595;28;85288;-64
2023/12/14 01:21:55;;;;;;;7.35;6.65;;;23.10;72.30;;;;;;6209418;28;84142;-64
2023/12/14 01:24:57;;;;;;;7.75;7.05;;;23.10;72.30;;;;;;6213347;28;86798;-64
2023/12/14 01:28:00;;;;;;;7.45;6.75;;;23.10;72.40;;;;;;6201574;28;83029;-64
2023/12/14 01:31:03;;;;;;;7.68;6.90;;;23.10;72.40;;;;;;6197573;28;84396;-63
2023/12/14 01:34:05;;;;;;;7.68;6.97;;;23.10;72.40;;;;;;6208541;28;84211;-64
2023/12/14 01:37:07;;;;;;;7.43;6.72;;;23.10;72.50;;;;;;6209047;28;84023;-64
2023/12/14 01:40:10;;;;;;;7.30;6.60;;;23.10;72.50;;;;;;6214391;28;83248;-64
2023/12/14 01:43:12;;;;;;;8.13;7.32;;;23.10;72.50;;;;;;6206253;28;82898;-64
2023/12/14 01:46:16;;;;;;;8.27;7.18;;;23.10;72.50;;;;;;6212004;28;83988;-64
2023/12/14 01:49:18;;;;;;;8.45;7.13;;;23.10;72.50;;;;;;6200374;28;85072;-64
2023/12/14 01:52:20;;;;;;;7.07;6.43;;;23.10;72.60;;;;;;6203522;28;84306;-64
2023/12/14 01:55:22;;;;;;;7.28;6.57;;;23.10;72.60;;;;;;6200844;28;84130;-64
2023/12/14 01:58:25;;;;;;;9.13;7.20;;;23.10;72.50;;;;;;6210324;28;84067;-63
2023/12/14 02:01:35;;;;;;;7.50;6.80;;;23.10;72.60;;;;;;6205976;28;84269;-63
2023/12/14 02:04:37;;;;;;;7.55;6.85;;;23.10;72.60;;;;;;6206823;28;84079;-64
2023/12/14 02:07:39;;;;;;;7.97;7.18;;;23.00;72.50;;;;;;6201289;28;84035;-64
2023/12/14 02:10:41;;;;;;;7.68;6.90;;;23.00;72.50;;;;;;6203877;28;83120;-63
2023/12/14 02:13:43;;;;;;;7.72;6.93;;;23.00;72.60;;;;;;6214303;28;84077;-64
2023/12/14 02:16:46;;;;;;;7.55;6.82;;;23.00;72.50;;;;;;6220416;28;84030;-64
2023/12/14 02:19:48;;;;;;;7.40;6.65;;;23.00;72.50;;;;;;6217212;28;85025;-64
2023/12/14 02:22:52;;;;;;;7.50;6.80;;;23.00;72.60;;;;;;6204091;28;83986;-64
2023/12/14 02:25:54;;;;;;;7.55;6.85;;;23.00;72.60;;;;;;6220197;28;84027;-64
2023/12/14 02:28:56;;;;;;;7.63;6.93;;;23.00;72.60;;;;;;6218797;28;84114;-64
2023/12/14 02:31:58;;;;;;;7.07;6.40;;;23.00;72.70;;;;;;6234350;28;84020;-64
2023/12/14 02:35:00;;;;;;;7.95;7.15;;;23.00;72.60;;;;;;6218560;28;84386;-64
2023/12/14 02:38:03;;;;;;;7.93;7.13;;;23.00;72.60;;;;;;6223871;28;82914;-64
2023/12/14 02:41:05;;;;;;;10.88;8.15;;;23.00;72.70;;;;;;6201570;28;83268;-64
2023/12/14 02:44:07;;;;;;;7.43;6.65;;;22.90;72.50;;;;;;6212235;28;84080;-64
2023/12/14 02:47:09;;;;;;;7.80;7.10;;;23.00;73.50;;;;;;6210969;28;83999;-64
2023/12/14 02:50:11;;;;;;;7.93;7.13;;;23.00;72.60;;;;;;6209337;28;85006;-64
2023/12/14 02:53:14;;;;;;;7.50;6.80;;;23.00;72.70;;;;;;6215274;28;83988;-64
2023/12/14 02:56:16;;;;;;;7.18;6.53;;;22.90;72.60;;;;;;6212720;28;84018;-64
2023/12/14 02:59:18;;;;;;;7.07;6.38;;;23.00;72.70;;;;;;6213224;28;84138;-64
2023/12/14 03:02:20;;;;;;;8.43;7.40;;;22.90;72.60;;;;;;6210404;28;84145;-64
2023/12/14 03:05:22;;;;;;;7.30;6.60;;;22.90;72.60;;;;;;6204894;28;85137;-64
2023/12/14 03:08:26;;;;;;;9.55;7.70;;;22.90;72.50;;;;;;6205967;28;84147;-64
2023/12/14 03:11:28;;;;;;;7.32;6.63;;;22.90;72.50;;;;;;6211783;28;84489;-64
2023/12/14 03:14:33;;;;;;;7.05;6.45;;;22.90;72.60;;;;;;6211166;28;83970;-64
2023/12/14 03:17:35;;;;;;;7.30;6.60;;;22.90;72.60;;;;;;6209631;28;83947;-64
2023/12/14 03:20:37;;;;;;;7.35;6.65;;;22.80;72.60;;;;;;6204017;28;84922;-64
2023/12/14 03:23:40;;;;;;;7.82;7.03;;;22.80;72.60;;;;;;6209965;28;84296;-64
2023/12/14 03:26:42;;;;;;;7.55;6.85;;;22.80;72.60;;;;;;6209671;28;84289;-64
2023/12/14 03:29:44;;;;;;;8.10;6.97;;;22.80;72.60;;;;;;6198277;28;84013;-64
2023/12/14 03:32:46;;;;;;;7.60;6.80;;;22.90;72.70;;;;;;6215802;28;83900;-64
2023/12/14 03:35:48;;;;;;;7.38;6.68;;;22.80;72.50;;;;;;6200679;28;85846;-64
2023/12/14 03:38:51;;;;;;;7.00;6.38;;;22.80;72.50;;;;;;6208056;28;82945;-64
2023/12/14 03:41:53;;;;;;;6.82;6.22;;;22.80;72.50;;;;;;6210509;28;83233;-64
2023/12/14 03:44:55;;;;;;;7.00;6.30;;;22.80;72.50;;;;;;6211719;28;84055;-64
2023/12/14 03:47:57;;;;;;;7.68;6.68;;;22.80;72.50;;;;;;6214612;28;83945;-64
2023/12/14 03:51:03;;;;;;;7.25;6.47;;;22.80;72.60;;;;;;6208983;28;84953;-64
2023/12/14 03:54:06;;;;;;;6.88;6.20;;;22.80;72.60;;;;;;6202828;28;82921;-64
2023/12/14 03:57:08;;;;;;;9.70;7.35;;;22.80;72.60;;;;;;6203810;28;84185;-64
2023/12/14 04:00:17;;;;;;;7.25;6.55;;;22.80;72.70;;;;;;6198617;28;83999;-64
2023/12/14 04:03:19;;;;;;;6.65;6.03;;;22.80;72.70;;;;;;6206318;28;83190;-64
2023/12/14 04:06:21;;;;;;;6.30;5.72;;;22.80;72.70;;;;;;6211342;28;83935;-64
2023/12/14 04:09:24;;;;;;;6.68;6.07;;;22.70;72.70;;;;;;6199039;28;84056;-64
2023/12/14 04:12:26;;;;;;;6.60;6.00;;;22.80;72.70;;;;;;6207610;28;83305;-64
2023/12/14 04:15:28;;;;;;;6.75;6.13;;;22.80;72.70;;;;;;6217049;28;84043;-64
2023/12/14 04:18:30;;;;;;;6.80;6.20;;;22.70;72.70;;;;;;6201117;28;83987;-64
2023/12/14 04:21:32;;;;;;;6.80;6.20;;;22.70;72.70;;;;;;6210900;28;84164;-64
2023/12/14 04:24:36;;;;;;;6.78;6.07;;;22.70;72.70;;;;;;6213929;28;82900;-64
2023/12/14 04:27:38;;;;;;;7.78;6.47;;;22.70;72.70;;;;;;6212468;28;84008;-64
2023/12/14 04:30:40;;;;;;;7.50;6.72;;;22.70;72.70;;;;;;6221202;28;84002;-64
2023/12/14 04:33:42;;;;;;;7.45;6.53;;;22.70;72.70;;;;;;6200733;28;84077;-64
2023/12/14 04:36:45;;;;;;;6.90;6.20;;;22.70;72.70;;;;;;6213731;28;83992;-64
2023/12/14 04:39:48;;;;;;;6.47;5.88;;;22.70;72.80;;;;;;6206450;28;82902;-64
2023/12/14 04:42:50;;;;;;;6.22;5.63;;;22.70;72.80;;;;;;6205229;28;83038;-64
2023/12/14 04:45:52;;;;;;;6.50;5.90;;;22.70;72.70;;;;;;6191634;28;84055;-64
2023/12/14 04:48:54;;;;;;;6.32;5.72;;;22.70;72.70;;;;;;6206071;28;84286;-64
2023/12/14 04:51:56;;;;;;;7.45;6.03;;;22.70;72.70;;;;;;6220708;28;85071;-64
2023/12/14 04:54:59;;;;;;;6.28;5.65;;;22.70;72.70;;;;;;6200107;28;84443;-64
2023/12/14 04:58:01;;;;;;;6.13;5.53;;;22.70;72.70;;;;;;6202051;28;84016;-64
2023/12/14 05:01:03;;;;;;;6.20;5.60;;;22.70;72.70;;;;;;6206236;28;84039;-64
2023/12/14 05:04:05;;;;;;;6.88;5.38;;;22.70;72.70;;;;;;6202848;28;82909;-64
2023/12/14 05:07:07;;;;;;;6.03;5.32;;;22.70;72.70;;;;;;6198470;28;84045;-64
2023/12/14 05:10:11;;;;;;;6.07;5.40;;;22.70;72.80;;;;;;6200442;28;84058;-64
2023/12/14 05:13:13;;;;;;;5.82;5.32;;;22.80;72.90;;;;;;6195532;28;83288;-64
2023/12/14 05:16:15;;;;;;;6.20;5.60;;;22.80;73.10;;;;;;6194293;28;83969;-64
2023/12/14 05:19:17;;;;;;;7.88;5.90;;;22.80;73.20;;;;;;6205260;28;83996;-64
2023/12/14 05:22:19;;;;;;;6.57;5.88;;;22.80;73.30;;;;;;6185127;28;83818;-64
2023/12/14 05:25:23;;;;;;;6.22;5.63;;;22.80;73.40;;;;;;6187794;28;84238;-64
2023/12/14 05:28:25;;;;;;;7.30;6.13;;;22.80;73.40;;;;;;6209586;28;82960;-64
2023/12/14 05:31:27;;;;;;;6.75;5.88;;;22.80;73.40;;;;;;6209514;28;83958;-64
2023/12/14 05:34:29;;;;;;;5.85;5.35;;;22.90;73.50;;;;;;6201348;28;84147;-64
2023/12/14 05:37:31;;;;;;;6.28;5.68;;;22.90;73.50;;;;;;6203340;28;84027;-64
2023/12/14 05:40:34;;;;;;;7.40;5.80;;;22.90;73.50;;;;;;6198913;28;84091;-64
2023/12/14 05:43:36;;;;;;;5.88;5.38;;;22.90;73.50;;;;;;6198443;28;83415;-64
2023/12/14 05:46:38;;;;;;;6.00;5.50;;;23.00;73.60;;;;;;6197127;28;84021;-64
2023/12/14 05:49:42;;;;;;;5.97;5.47;;;23.00;73.50;;;;;;6201017;28;84654;-64
2023/12/14 05:52:45;;;;;;;6.78;5.95;;;23.00;73.50;;;;;;6196625;28;84846;-64
2023/12/14 05:55:49;;;;;;;6.15;5.55;;;23.00;72.80;;;;;;6200543;28;84130;-64
2023/12/14 05:58:51;;;;;;;6.15;4.93;;;22.90;72.40;;;;;;6206066;28;84017;-66
2023/12/14 06:01:58;;;;;;;6.00;4.93;;;22.90;71.80;;;;;;6194805;28;82866;-65
2023/12/14 06:05:00;;;;;;;5.32;4.82;;;22.90;71.10;;;;;;6202397;28;84002;-65
2023/12/14 06:08:02;;;;;;;5.10;4.10;;;22.90;72.50;;;;;;6207261;28;83720;-64
2023/12/14 06:11:06;;;;;;;4.63;4.10;;;23.00;71.90;;;;;;6205351;28;84146;-62
2023/12/14 06:14:08;;;;;;;4.97;4.57;;;23.00;71.40;;;;;;6203103;28;83211;-62
2023/12/14 06:17:10;;;;;;;5.53;4.65;;;23.00;73.80;;;;;;6207155;28;84023;-62
2023/12/14 06:20:13;;;;;;;5.10;4.57;;;23.10;73.10;;;;;;6206379;28;84105;-63
2023/12/14 06:23:15;;;;;;;5.90;4.78;;;23.10;72.50;;;;;;6193198;28;83876;-62
2023/12/14 06:26:18;;;;;;;4.75;4.35;;;23.10;72.40;;;;;;6213207;28;84046;-62
2023/12/14 06:29:20;;;;;;;4.97;4.47;;;23.10;72.80;;;;;;6192751;28;83201;-63
2023/12/14 06:32:22;;;;;;;5.00;4.50;;;23.10;72.60;;;;;;6206215;28;84004;-62
2023/12/14 06:35:24;;;;;;;5.28;4.40;;;23.10;72.50;;;;;;6200935;28;84302;-63
2023/12/14 06:38:26;;;;;;;4.68;4.28;;;23.10;72.60;;;;;;6194162;28;84036;-64
2023/12/14 06:41:30;;;;;;;4.82;4.38;;;23.10;72.50;;;;;;6205209;28;84922;-65
2023/12/14 06:44:32;;;;;;;5.25;4.38;;;23.10;72.40;;;;;;6210391;28;83386;-65
2023/12/14 06:47:34;;;;;;;4.50;4.10;;;23.20;72.40;;;;;;6194888;28;84256;-65
2023/12/14 06:50:36;;;;;;;4.60;4.07;;;23.20;72.50;;;;;;6197527;28;84043;-65
2023/12/14 06:53:41;;;;;;;4.82;4.18;;;23.10;72.30;;;;;;6200192;28;84442;-65
2023/12/14 06:56:44;;;;;;;4.80;4.30;;;23.20;72.30;;;;;;6205863;28;82924;-65
2023/12/14 06:59:46;;;;;;;4.93;4.15;;;23.20;72.30;;;;;;6207980;28;84088;-65
2023/12/14 07:02:48;;;;;;;4.80;4.35;;;23.20;72.30;;;;;;6194832;28;84703;-65
2023/12/14 07:05:50;;;;;;;4.55;4.15;;;23.20;72.20;;;;;;6209948;28;84346;-65
2023/12/14 07:08:52;;;;;;;4.40;4.00;;;23.20;72.20;;;;;;6211219;28;84101;-65
2023/12/14 07:11:55;;;;;;;4.30;3.90;;;23.20;72.20;;;;;;6208079;28;83263;-65
2023/12/14 07:14:57;;;;;;;4.40;4.00;;;23.20;72.20;;;;;;6206069;28;83647;-65
2023/12/14 07:17:59;;;;;;;4.80;4.20;;;23.20;72.20;;;;;;6209249;28;83972;-65
2023/12/14 07:21:01;;;;;;;4.65;4.15;;;23.20;72.20;;;;;;6216740;28;83909;-65
2023/12/14 07:24:03;;;;;;;4.82;3.95;;;23.30;72.20;;;;;;6198845;28;84973;-65
2023/12/14 07:27:07;;;;;;;4.60;4.20;;;23.30;72.20;;;;;;6211250;28;84323;-65
2023/12/14 07:30:10;;;;;;;4.43;4.03;;;23.30;72.30;;;;;;6210493;28;84087;-65
2023/12/14 07:33:12;;;;;;;4.70;4.30;;;23.30;72.20;;;;;;6210735;28;83952;-65
2023/12/14 07:36:14;;;;;;;4.68;4.15;;;23.30;72.20;;;;;;6210879;28;82912;-65
2023/12/14 07:39:16;;;;;;;4.63;3.92;;;23.30;72.30;;;;;;6202700;28;84175;-65
2023/12/14 07:42:20;;;;;;;4.85;4.35;;;23.30;72.20;;;;;;6206503;28;84026;-65
2023/12/14 07:45:22;;;;;;;4.68;4.18;;;23.30;72.30;;;;;;6211198;28;82311;-65
2023/12/14 07:48:24;;;;;;;4.32;3.90;;;23.30;72.30;;;;;;6204001;28;84015;-65
2023/12/14 07:51:26;;;;;;;4.45;4.05;;;23.30;72.30;;;;;;6203730;28;83975;-65
2023/12/14 07:54:28;;;;;;;5.45;4.00;;;23.30;72.30;;;;;;6203860;28;85693;-65
2023/12/14 07:57:32;;;;;;;4.57;3.75;;;23.30;72.30;;;;;;6214989;28;84116;-66
2023/12/14 08:00:34;;;;;;;5.03;3.90;;;23.30;72.30;;;;;;6215774;28;82828;-65
2023/12/14 08:03:36;;;;;;;4.85;4.20;;;23.30;72.30;;;;;;6200712;28;84028;-65
2023/12/14 08:06:39;;;;;;;5.97;4.18;;;23.40;72.30;;;;;;6209608;28;83999;-66
2023/12/14 08:09:41;;;;;;;4.85;3.90;;;23.40;72.30;;;;;;6214038;28;83975;-63
2023/12/14 08:12:44;;;;;;;4.40;4.00;;;23.40;72.30;;;;;;6222821;28;82900;-63
2023/12/14 08:15:46;;;;;;;4.28;3.72;;;23.40;72.30;;;;;;6210837;28;83272;-63
2023/12/14 08:18:48;;;;;;;4.38;3.97;;;23.40;72.30;;;;;;6214510;28;84148;-63
2023/12/14 08:21:50;;;;;;;4.35;3.95;;;23.40;72.30;;;;;;6208415;28;84061;-64
2023/12/14 08:24:52;;;;;;;5.50;4.20;;;23.40;72.30;;;;;;6185677;28;85063;-63
2023/12/14 08:27:55;;;;;;;4.18;3.78;;;23.40;72.30;;;;;;6198350;28;83920;-64
2023/12/14 08:30:58;;;;;;;4.05;3.65;;;23.40;72.30;;;;;;6199509;28;84533;-63
2023/12/14 08:34:00;;;;;;;4.53;4.13;;;23.40;72.30;;;;;;6184421;28;82706;-64
2023/12/14 08:37:03;;;;;;;4.57;4.13;;;23.40;72.30;;;;;;6192941;28;84034;-63
2023/12/14 08:40:06;;;;;;;4.55;4.13;;;23.40;72.30;;;;;;6207997;28;84019;-63
2023/12/14 08:43:09;;;;;;;4.25;3.85;;;23.40;72.30;;;;;;6211981;28;84026;-63
2023/12/14 08:46:11;;;;;;;4.20;3.80;;;23.40;72.30;;;;;;6210649;28;83383;-63
2023/12/14 08:49:15;;;;;;;4.13;3.72;;;23.40;72.30;;;;;;6207612;28;84008;-63
2023/12/14 08:52:19;;;;;;;4.30;3.90;;;23.40;72.30;;;;;;6204789;28;82912;-64
2023/12/14 08:55:21;;;;;;;4.10;3.70;;;23.40;72.30;;;;;;6202858;28;84999;-63
2023/12/14 08:58:25;;;;;;;4.35;3.95;;;23.40;72.30;;;;;;6209493;28;83949;-63
2023/12/14 09:01:27;;;;;;;4.93;4.22;;;23.50;72.30;;;;;;6205555;28;84108;-63
2023/12/14 09:04:29;;;;;;;5.50;4.40;;;23.50;72.40;;;;;;6200249;28;84043;-63
2023/12/14 09:07:31;;;;;;;4.60;4.18;;;23.40;72.30;;;;;;6209112;28;82743;-63
2023/12/14 09:10:33;;;;;;;5.93;4.40;;;23.50;72.40;;;;;;6210420;28;85542;-63
2023/12/14 09:13:36;;;;;;;5.05;4.55;;;23.50;72.30;;;;;;6208330;28;83879;-64
2023/12/14 09:16:38;;;;;;;4.60;4.20;;;23.50;72.30;;;;;;6208829;28;83387;-63
2023/12/14 09:19:40;;;;;;;5.28;4.78;;;23.50;72.30;;;;;;6202489;28;83974;-63
2023/12/14 09:22:42;;;;;;;5.57;5.07;;;23.50;72.30;;;;;;6197336;28;84028;-63
2023/12/14 09:25:44;;;;;;;6.90;6.03;;;23.50;72.30;;;;;;6193084;28;85201;-63
2023/12/14 09:28:48;;;;;;;5.70;5.20;;;23.50;72.30;;;;;;6206707;28;84137;-63
2023/12/14 09:31:50;;;;;;;6.05;5.45;;;23.50;72.50;;;;;;6202251;28;83969;-63
2023/12/14 09:34:56;;;;;;;6.20;5.60;;;23.50;72.30;;;;;;6208273;28;84072;-63
2023/12/14 09:37:58;;;;;;;6.78;6.18;;;23.50;72.40;;;;;;6202549;28;84434;-63
2023/12/14 09:41:00;;;;;;;7.15;6.30;;;23.50;72.30;;;;;;6218496;28;84026;-63
2023/12/14 09:44:05;;;;;;;7.03;6.32;;;23.50;72.40;;;;;;6202682;28;84122;-63
2023/12/14 09:47:07;;;;;;;8.50;7.20;;;23.50;72.50;;;;;;6191832;28;83709;-63
2023/12/14 09:50:10;;;;;;;7.88;7.07;;;23.60;72.50;;;;;;6207763;28;84088;-63
2023/12/14 09:53:12;;;;;;;7.00;6.40;;;23.50;72.40;;;;;;6208678;28;84371;-63
2023/12/14 09:56:14;;;;;;;8.40;7.43;;;23.60;72.50;;;;;;6198147;28;85082;-63
2023/12/14 09:59:17;;;;;;;7.30;6.60;;;23.60;72.40;;;;;;6186694;28;84028;-63
2023/12/14 10:02:19;;;;;;;7.78;6.97;;;23.60;72.40;;;;;;6208054;28;84433;-63
2023/12/14 10:05:21;;;;;;;8.02;7.30;;;23.60;72.40;;;;;;6207966;28;83915;-63
2023/12/14 10:08:24;;;;;;;8.05;7.30;;;23.60;72.40;;;;;;6207979;28;84082;-63
2023/12/14 10:11:26;;;;;;;7.57;6.88;;;23.60;72.40;;;;;;6208507;28;84066;-63
2023/12/14 10:14:29;;;;;;;8.65;7.85;;;23.60;72.40;;;;;;6207661;28;84041;-63
2023/12/14 10:17:32;;;;;;;8.48;7.68;;;23.60;72.30;;;;;;6208013;28;83351;-63
2023/12/14 10:20:34;;;;;;;8.63;7.82;;;23.60;72.40;;;;;;6201240;28;83851;-63
2023/12/14 10:23:36;;;;;;;8.45;7.65;;;23.60;72.40;;;;;;6208987;28;84000;-63
2023/12/14 10:26:38;;;;;;;9.00;8.10;;;23.60;72.40;;;;;;6194082;28;84937;-63
2023/12/14 10:29:41;;;;;;;9.70;8.70;;;23.60;72.30;;;;;;6201461;28;84059;-63
2023/12/14 10:32:44;;;;;;;9.25;8.35;;;23.60;72.30;;;;;;6196780;28;82945;-63
2023/12/14 10:35:47;;;;;;;9.88;8.88;;;23.60;72.40;;;;;;6203875;28;83352;-63
2023/12/14 10:38:53;;;;;;;10.48;9.35;;;23.70;72.40;;;;;;6198699;28;84106;-63
2023/12/14 10:41:57;;;;;;;10.93;9.82;;;23.60;72.40;;;;;;6212668;28;83943;-63
2023/12/14 10:45:04;;;;;;;11.13;10.00;;;23.60;72.50;;;;;;6199260;28;82922;-63
2023/12/14 10:48:08;;;;;;;11.90;10.70;;;23.70;72.50;;;;;;6199578;28;82866;-63
2023/12/14 10:51:11;;;;;;;12.32;10.70;;;23.70;72.50;;;;;;6209255;28;84186;-63
2023/12/14 10:54:13;;;;;;;13.13;11.73;;;23.70;73.00;;;;;;6197333;28;84043;-63
2023/12/14 10:57:15;;;;;;;13.98;11.50;;;23.70;72.50;;;;;;6208141;28;84706;-63
2023/12/14 11:00:19;;;;;;;13.10;11.70;;;23.70;72.40;;;;;;6205483;28;84317;-64
2023/12/14 11:03:22;;;;;;;14.40;12.30;;;23.70;72.40;;;;;;6195023;28;83955;-64
2023/12/14 11:06:31;;;;;;;16.27;14.05;;;23.70;72.30;;;;;;6199230;28;84065;-63
2023/12/14 11:09:33;;;;;;;162.48;72.70;;;23.70;72.40;;;;;;6190807;28;84409;-63
2023/12/14 11:12:35;;;;;;;44.67;29.25;;;23.70;78.40;;;;;;6194164;28;83976;-65
2023/12/14 11:15:40;;;;;;;37.63;25.08;;;23.80;76.20;;;;;;6199498;28;84322;-64
2023/12/14 11:18:42;;;;;;;32.75;23.52;;;23.90;75.00;;;;;;6209233;28;83242;-68
2023/12/14 11:21:44;;;;;;;34.80;23.30;;;23.90;74.20;;;;;;6187051;28;83941;-69
2023/12/14 11:24:53;;;;;;;29.25;21.85;;;24.00;73.70;;;;;;6199642;28;83973;-71
2023/12/14 11:27:55;;;;;;;27.45;21.00;;;24.00;73.40;;;;;;6186265;28;85012;-63
2023/12/14 11:30:59;;;;;;;29.30;20.75;;;24.00;73.70;;;;;;6191305;28;85149;-64
2023/12/14 11:34:04;;;;;;;27.27;20.65;;;24.00;75.80;;;;;;6208506;28;84041;-64
2023/12/14 11:37:06;;;;;;;29.77;21.40;;;24.10;74.40;;;;;;6209476;28;83138;-63
2023/12/14 11:40:10;;;;;;;29.25;22.05;;;24.00;74.30;;;;;;6209788;28;82967;-63
2023/12/14 11:43:12;;;;;;;27.75;22.00;;;24.10;74.20;;;;;;6187064;28;85361;-63
2023/12/14 11:46:16;;;;;;;28.10;22.00;;;24.00;73.80;;;;;;6207258;28;83967;-64
2023/12/14 11:49:18;;;;;;;29.20;22.27;;;24.00;73.70;;;;;;6209539;28;84892;-64
2023/12/14 11:52:20;;;;;;;29.25;22.85;;;24.00;73.50;;;;;;6209077;28;84046;-64
2023/12/14 11:55:22;;;;;;;31.65;23.55;;;24.00;73.40;;;;;;6207893;28;84136;-63
2023/12/14 11:58:26;;;;;;;31.30;23.75;;;24.00;73.30;;;;;;6209301;28;84938;-64
2023/12/14 12:01:31;;;;;;;34.65;25.98;;;24.00;73.30;;;;;;6195425;28;84075;-63
2023/12/14 12:04:33;;;;;;;35.75;26.45;;;24.00;73.30;;;;;;6196848;28;84300;-63
2023/12/14 12:07:35;;;;;;;37.08;27.27;;;24.00;73.30;;;;;;6185427;28;84251;-64
2023/12/14 12:10:38;;;;;;;36.97;27.02;;;24.00;73.20;;;;;;6197716;28;83962;-64
2023/12/14 12:13:40;;;;;;;37.65;27.38;;;24.00;73.20;;;;;;6206261;28;83927;-64
2023/12/14 12:16:43;;;;;;;41.00;28.45;;;24.00;73.10;;;;;;6202248;28;84037;-64
2023/12/14 12:19:46;;;;;;;39.92;28.63;;;24.00;73.00;;;;;;6202043;28;84969;-63
2023/12/14 12:22:48;;;;;;;36.95;28.33;;;24.00;72.90;;;;;;6185710;28;84026;-64
2023/12/14 12:25:50;;;;;;;38.97;29.33;;;24.00;72.90;;;;;;6190287;28;84025;-63
2023/12/14 12:28:52;;;;;;;43.50;30.58;;;24.00;72.80;;;;;;6198138;28;83849;-64
2023/12/14 12:31:55;;;;;;;42.20;31.50;;;24.00;73.10;;;;;;6196670;28;84100;-63
2023/12/14 12:34:57;;;;;;;44.88;31.00;;;24.00;73.30;;;;;;6184815;28;84337;-64
2023/12/14 12:37:59;;;;;;;43.33;31.58;;;23.90;73.80;;;;;;6187297;28;83213;-64
2023/12/14 12:41:01;;;;;;;41.63;30.83;;;24.00;73.40;;;;;;6205887;28;84287;-63
2023/12/14 12:44:05;;;;;;;42.25;30.80;;;24.00;73.50;;;;;;6204864;28;84872;-64
2023/12/14 12:47:09;;;;;;;41.85;31.45;;;24.00;73.30;;;;;;6197915;28;84037;-64
2023/12/14 12:50:11;;;;;;;43.15;31.55;;;24.00;73.40;;;;;;6199320;28;84213;-63
2023/12/14 12:53:13;;;;;;;42.08;31.20;;;24.00;73.50;;;;;;6222604;28;83991;-63
2023/12/14 12:56:15;;;;;;;41.03;30.10;;;24.00;73.40;;;;;;6208712;28;84143;-64
2023/12/14 12:59:18;;;;;;;42.35;31.52;;;24.00;73.70;;;;;;6208793;28;84768;-63
2023/12/14 13:02:22;;;;;;;39.13;30.35;;;24.10;73.20;;;;;;6193333;28;86245;-63
2023/12/14 13:05:25;;;;;;;40.03;30.90;;;24.10;72.80;;;;;;6197417;28;84357;-63
2023/12/14 13:08:27;;;;;;;38.50;29.77;;;24.10;80.60;;;;;;6204823;28;84357;-63
2023/12/14 13:11:29;;;;;;;39.40;30.90;;;24.20;78.60;;;;;;6207946;28;84031;-63
2023/12/14 13:14:31;;;;;;;40.78;31.50;;;24.30;77.10;;;;;;6207691;28;84072;-63
2023/12/14 13:17:35;;;;;;;40.42;32.10;;;24.30;76.20;;;;;;6207153;28;83910;-63
2023/12/14 13:20:37;;;;;;;38.70;30.30;;;24.30;75.50;;;;;;6198121;28;84732;-63
2023/12/14 13:23:39;;;;;;;41.20;31.58;;;24.30;75.20;;;;;;6194936;28;83205;-63
2023/12/14 13:26:41;;;;;;;37.65;30.73;;;24.30;74.90;;;;;;6203970;28;84156;-63
2023/12/14 13:29:43;;;;;;;41.25;32.72;;;24.30;74.40;;;;;;6209357;28;85284;-63
2023/12/14 13:32:47;;;;;;;41.03;32.80;;;24.30;73.80;;;;;;6208949;28;84274;-63
2023/12/14 13:35:49;;;;;;;39.67;31.73;;;24.30;73.20;;;;;;6207496;28;84004;-63
2023/12/14 13:38:51;;;;;;;42.88;32.97;;;24.30;73.00;;;;;;6204586;28;82886;-63
2023/12/14 13:41:53;;;;;;;40.28;31.23;;;24.30;72.80;;;;;;6196625;28;84088;-63
2023/12/14 13:44:55;;;;;;;39.47;31.77;;;24.20;72.70;;;;;;6196228;28;82929;-63
2023/12/14 13:47:59;;;;;;;39.72;31.85;;;24.30;72.60;;;;;;6220048;28;84028;-63
2023/12/14 13:51:01;;;;;;;39.20;32.15;;;24.30;72.40;;;;;;6208329;28;84050;-63
2023/12/14 13:54:03;;;;;;;39.55;31.27;;;24.30;72.30;;;;;;6207904;28;83857;-63
2023/12/14 13:57:05;;;;;;;39.85;31.10;;;24.30;72.30;;;;;;6200190;28;84495;-63
2023/12/14 14:00:08;;;;;;;40.92;31.83;;;24.30;72.10;;;;;;6202277;28;84981;-63
2023/12/14 14:03:12;;;;;;;40.92;32.08;;;24.30;72.10;;;;;;6207717;28;83983;-63
2023/12/14 14:06:15;;;;;;;39.33;31.45;;;24.30;72.00;;;;;;6204114;28;83793;-63
2023/12/14 14:09:17;;;;;;;41.42;32.15;;;24.30;72.00;;;;;;6196632;28;84384;-63
2023/12/14 14:12:19;;;;;;;40.00;32.05;;;24.30;72.00;;;;;;6196008;28;82951;-63
2023/12/14 14:15:21;;;;;;;40.00;31.90;;;24.30;72.00;;;;;;6211977;28;83080;-63
2023/12/14 14:18:24;;;;;;;38.97;31.58;;;24.30;72.00;;;;;;6202359;28;84146;-62
2023/12/14 14:21:26;;;;;;;38.28;31.02;;;24.30;72.00;;;;;;6207390;28;83288;-63
2023/12/14 14:24:28;;;;;;;38.95;31.70;;;24.30;72.00;;;;;;6204755;28;83848;-63
2023/12/14 14:27:30;;;;;;;37.10;30.85;;;24.30;72.00;;;;;;6208827;28;84254;-63
2023/12/14 14:30:32;;;;;;;38.22;31.05;;;24.30;72.00;;;;;;6201094;28;84811;-63
2023/12/14 14:33:36;;;;;;;39.05;32.10;;;24.30;72.00;;;;;;6212575;28;84013;-63
2023/12/14 14:36:38;;;;;;;37.58;30.83;;;24.30;72.00;;;;;;6212026;28;84375;-62
2023/12/14 14:39:43;;;;;;;36.22;29.77;;;24.30;71.90;;;;;;6211907;28;84140;-63
2023/12/14 14:42:45;;;;;;;39.58;31.80;;;24.20;71.90;;;;;;6203642;28;83253;-63
2023/12/14 14:45:47;;;;;;;36.75;30.42;;;24.20;72.00;;;;;;6210976;28;83990;-63
2023/12/14 14:48:50;;;;;;;38.40;30.85;;;24.20;72.00;;;;;;6218852;28;84143;-63
2023/12/14 14:51:52;;;;;;;35.67;30.10;;;24.20;72.00;;;;;;6211585;28;83643;-63
2023/12/14 14:54:54;;;;;;;35.50;29.90;;;24.20;72.00;;;;;;6212143;28;84028;-63
2023/12/14 14:57:56;;;;;;;37.50;29.75;;;24.20;72.00;;;;;;6201556;28;84145;-62
2023/12/14 15:00:58;;;;;;;35.30;29.75;;;24.20;72.00;;;;;;6210972;28;85079;-63
2023/12/14 15:04:02;;;;;;;33.58;27.67;;;24.20;71.90;;;;;;6198968;28;83949;-63
2023/12/14 15:07:04;;;;;;;34.15;28.73;;;24.20;71.90;;;;;;6193443;28;84112;-63
2023/12/14 15:10:07;;;;;;;35.78;28.67;;;24.10;71.80;;;;;;6195919;28;84023;-63
2023/12/14 15:13:09;;;;;;;35.15;29.33;;;24.20;71.90;;;;;;6211102;28;83947;-63
2023/12/14 15:16:12;;;;;;;34.80;28.58;;;24.20;71.80;;;;;;6209851;28;84144;-63
2023/12/14 15:19:16;;;;;;;32.28;27.70;;;24.20;71.80;;;;;;6210166;28;84112;-63
2023/12/14 15:22:18;;;;;;;32.85;27.55;;;24.20;71.80;;;;;;6202865;28;82719;-63
2023/12/14 15:25:20;;;;;;;32.55;27.15;;;24.20;71.80;;;;;;6193157;28;83113;-63
2023/12/14 15:28:22;;;;;;;33.50;28.00;;;24.20;71.80;;;;;;6216045;28;84332;-62
2023/12/14 15:31:23;;;;;;;32.80;27.95;;;24.20;71.80;;;;;;6214176;28;83906;-63
2023/12/14 15:34:27;;;;;;;33.42;28.58;;;24.20;71.80;;;;;;6210451;28;84089;-63
2023/12/14 15:37:29;;;;;;;33.47;28.25;;;24.20;71.80;;;;;;6196307;28;84202;-62
2023/12/14 15:40:31;;;;;;;32.83;27.48;;;24.10;71.70;;;;;;6210358;28;84079;-63
2023/12/14 15:43:33;;;;;;;32.80;27.88;;;24.20;71.70;;;;;;6199567;28;84483;-62